MAPA DE AEROPUERTO

INFORMACIÓN METAR y TAF

METAR FOR ESGG
ADDS - METARS form results

(1140 UTC 05 August 2021)
Data provider http://aviationweather.gov/metar/data/
 
METAR text: ESGG 051120Z 21005KT 170V290 9999 FEW042 20/10 Q1013
Conditions at: ESGG (GOTEBORG/LANDVET, SE) observed 1120 UTC 05 August 2021
Temperature: 20.0°C (68°F)
Dewpoint: 10.0°C (50°F) [RH = 53%]
Pressure (altimeter): 29.91 inches Hg (1013.0 mb)
Winds: from the SSW (210 degrees) at 6 MPH (5 knots; 2.6 m/s)
Visibility: 6 or more miles (10+ km)
Ceiling: at least 12,000 feet AGL
Clouds: few clouds at 4200 feet AGL
Weather: no significant weather observed at this time

METAR text: ESGG 051050Z 14006KT 060V220 9999 SCT038 19/10 Q1014
Conditions at: ESGG (GOTEBORG/LANDVET, SE) observed 1050 UTC 05 August 2021
Temperature: 19.0°C (66°F)
Dewpoint: 10.0°C (50°F) [RH = 56%]
Pressure (altimeter): 29.94 inches Hg (1014.0 mb)
Winds: from the SE (140 degrees) at 7 MPH (6 knots; 3.1 m/s)
Visibility: 6 or more miles (10+ km)
Ceiling: at least 12,000 feet AGL
Clouds: scattered clouds at 3800 feet AGL
Weather: no significant weather observed at this time

Forecast for: ESGG (GOTEBORG/LANDVET, SE)
Text: TAF ESGG 051130Z 0512/0612 14006KT CAVOK
Forecast period: 1200 UTC 05 August 2021 to 1200 UTC 06 August 2021
Forecast type: FROM: standard forecast or significant change
Winds: from the SE (140 degrees) at 7 MPH (6 knots; 3.1 m/s)
Visibility: 6 or more miles (10+ km)
Ceiling: unknown
Clouds: missing
Weather: NSW  (no significant weather)